sensor_id;sensor_type;location;lat;lon;timestamp;pressure;altitude;pressure_sealevel;temperature;humidity
72587;BME280;60621;49.576;11.024;2023-03-18T00:00:50;97889.03;;;7.59;59.27
72587;BME280;60621;49.576;11.024;2023-03-18T00:01:52;97896.16;;;7.58;59.20
72587;BME280;60621;49.576;11.024;2023-03-18T00:02:54;97895.94;;;7.48;59.72
72587;BME280;60621;49.576;11.024;2023-03-18T00:03:56;97890.88;;;7.39;59.76
72587;BME280;60621;49.576;11.024;2023-03-18T00:04:57;97897.50;;;7.33;60.41
72587;BME280;60621;49.576;11.024;2023-03-18T00:06:15;97897.56;;;7.36;60.22
72587;BME280;60621;49.576;11.024;2023-03-18T00:07:17;97896.19;;;7.42;60.09
72587;BME280;60621;49.576;11.024;2023-03-18T00:08:19;97894.75;;;7.45;60.01
72587;BME280;60621;49.576;11.024;2023-03-18T00:09:28;97896.81;;;7.36;60.07
72587;BME280;60621;49.576;11.024;2023-03-18T00:10:30;97894.69;;;7.41;60.23
72587;BME280;60621;49.576;11.024;2023-03-18T00:11:33;97897.72;;;7.43;60.13
72587;BME280;60621;49.576;11.024;2023-03-18T00:12:37;97897.81;;;7.47;59.88
72587;BME280;60621;49.576;11.024;2023-03-18T00:13:40;97904.91;;;7.47;59.31
72587;BME280;60621;49.576;11.024;2023-03-18T00:14:41;97901.22;;;7.32;60.35
72587;BME280;60621;49.576;11.024;2023-03-18T00:15:43;97893.84;;;7.37;59.93
72587;BME280;60621;49.576;11.024;2023-03-18T00:16:45;97898.53;;;7.28;60.31
72587;BME280;60621;49.576;11.024;2023-03-18T00:17:47;97899.63;;;7.27;59.96
72587;BME280;60621;49.576;11.024;2023-03-18T00:18:49;97899.63;;;7.27;59.95
72587;BME280;60621;49.576;11.024;2023-03-18T00:19:50;97902.56;;;7.26;60.58
72587;BME280;60621;49.576;11.024;2023-03-18T00:20:52;97894.78;;;7.29;60.34
72587;BME280;60621;49.576;11.024;2023-03-18T00:21:54;97900.47;;;7.31;59.95
72587;BME280;60621;49.576;11.024;2023-03-18T00:22:56;97897.50;;;7.33;59.93
72587;BME280;60621;49.576;11.024;2023-03-18T00:23:58;97899.00;;;7.34;59.82
72587;BME280;60621;49.576;11.024;2023-03-18T00:25:00;97896.03;;;7.35;60.34
72587;BME280;60621;49.576;11.024;2023-03-18T00:26:03;97900.34;;;7.43;60.08
72587;BME280;60621;49.576;11.024;2023-03-18T00:27:05;97896.69;;;7.48;59.66
72587;BME280;60621;49.576;11.024;2023-03-18T00:28:07;97894.91;;;7.52;59.61
72587;BME280;60621;49.576;11.024;2023-03-18T00:29:09;97887.72;;;7.49;59.76
72587;BME280;60621;49.576;11.024;2023-03-18T00:30:11;97896.59;;;7.44;59.19
72587;BME280;60621;49.576;11.024;2023-03-18T00:31:13;97892.91;;;7.46;59.68
72587;BME280;60621;49.576;11.024;2023-03-18T00:32:16;97896.47;;;7.37;59.71
72587;BME280;60621;49.576;11.024;2023-03-18T00:33:17;97889.97;;;7.31;59.97
72587;BME280;60621;49.576;11.024;2023-03-18T00:34:19;97898.53;;;7.28;60.26
72587;BME280;60621;49.576;11.024;2023-03-18T00:35:21;97895.06;;;7.24;60.05
72587;BME280;60621;49.576;11.024;2023-03-18T00:36:23;97893.19;;;7.25;59.93
72587;BME280;60621;49.576;11.024;2023-03-18T00:37:28;97889.44;;;7.26;59.94
72587;BME280;60621;49.576;11.024;2023-03-18T00:38:34;97892.84;;;7.26;60.05
72587;BME280;60621;49.576;11.024;2023-03-18T00:39:36;97891.75;;;7.27;59.70
72587;BME280;60621;49.576;11.024;2023-03-18T00:40:37;97894.78;;;7.29;59.80
72587;BME280;60621;49.576;11.024;2023-03-18T00:41:54;97899.38;;;7.32;59.80
72587;BME280;60621;49.576;11.024;2023-03-18T00:42:56;97897.84;;;7.31;60.16
72587;BME280;60621;49.576;11.024;2023-03-18T00:44:08;97898.25;;;7.33;60.14
72587;BME280;60621;49.576;11.024;2023-03-18T00:45:10;97903.09;;;7.31;59.87
72587;BME280;60621;49.576;11.024;2023-03-18T00:46:16;97897.41;;;7.29;59.84
72587;BME280;60621;49.576;11.024;2023-03-18T00:47:19;97899.63;;;7.27;59.75
72587;BME280;60621;49.576;11.024;2023-03-18T00:48:22;97901.16;;;7.28;60.18
72587;BME280;60621;49.576;11.024;2023-03-18T00:49:24;97904.53;;;7.29;59.59
72587;BME280;60621;49.576;11.024;2023-03-18T00:50:26;97902.00;;;7.16;59.96
72587;BME280;60621;49.576;11.024;2023-03-18T00:51:30;97905.31;;;7.13;60.38
72587;BME280;60621;49.576;11.024;2023-03-18T00:52:33;97902.78;;;7.17;60.01
72587;BME280;60621;49.576;11.024;2023-03-18T00:53:34;97908.34;;;7.15;60.25
72587;BME280;60621;49.576;11.024;2023-03-18T00:54:36;97905.06;;;7.03;60.27
72587;BME280;60621;49.576;11.024;2023-03-18T00:55:37;97904.13;;;6.95;60.80
72587;BME280;60621;49.576;11.024;2023-03-18T00:56:39;97900.50;;;7.00;60.65
72587;BME280;60621;49.576;11.024;2023-03-18T00:57:41;97897.22;;;7.03;60.73
72587;BME280;60621;49.576;11.024;2023-03-18T00:58:44;97894.75;;;6.94;60.69
72587;BME280;60621;49.576;11.024;2023-03-18T00:59:45;97889.16;;;6.96;60.69
72587;BME280;60621;49.576;11.024;2023-03-18T01:00:48;97896.41;;;7.02;60.21
72587;BME280;60621;49.576;11.024;2023-03-18T01:01:50;97895.09;;;7.08;59.97
72587;BME280;60621;49.576;11.024;2023-03-18T01:02:52;97895.56;;;7.14;59.97
72587;BME280;60621;49.576;11.024;2023-03-18T01:03:53;97896.41;;;7.18;59.59
72587;BME280;60621;49.576;11.024;2023-03-18T01:04:55;97900.56;;;7.19;59.75
72587;BME280;60621;49.576;11.024;2023-03-18T01:05:57;97900.16;;;7.17;59.41
72587;BME280;60621;49.576;11.024;2023-03-18T01:06:59;97899.72;;;7.15;60.04
72587;BME280;60621;49.576;11.024;2023-03-18T01:08:01;97899.72;;;7.15;59.69
72587;BME280;60621;49.576;11.024;2023-03-18T01:09:04;97896.81;;;7.20;59.62
72587;BME280;60621;49.576;11.024;2023-03-18T01:10:07;97897.44;;;7.13;59.98
72587;BME280;60621;49.576;11.024;2023-03-18T01:11:10;97895.09;;;7.08;60.14
72587;BME280;60621;49.576;11.024;2023-03-18T01:12:11;97898.47;;;7.09;59.84
72587;BME280;60621;49.576;11.024;2023-03-18T01:13:14;97899.22;;;7.09;59.86
72587;BME280;60621;49.576;11.024;2023-03-18T01:14:16;97896.41;;;7.02;60.19
72587;BME280;60621;49.576;11.024;2023-03-18T01:15:19;97895.50;;;6.95;60.85
72587;BME280;60621;49.576;11.024;2023-03-18T01:16:22;97896.28;;;6.95;61.14
72587;BME280;60621;49.576;11.024;2023-03-18T01:17:24;97898.72;;;6.88;61.14
72587;BME280;60621;49.576;11.024;2023-03-18T01:18:26;97904.47;;;6.78;61.46
72587;BME280;60621;49.576;11.024;2023-03-18T01:19:28;97901.28;;;6.84;61.62
72587;BME280;60621;49.576;11.024;2023-03-18T01:20:29;97889.78;;;6.89;61.61
72587;BME280;60621;49.576;11.024;2023-03-18T01:21:31;97899.91;;;6.90;61.54
72587;BME280;60621;49.576;11.024;2023-03-18T01:22:34;97896.44;;;6.86;61.29
72587;BME280;60621;49.576;11.024;2023-03-18T01:23:36;97887.66;;;6.95;60.95
72587;BME280;60621;49.576;11.024;2023-03-18T01:24:38;97898.63;;;7.00;60.80
72587;BME280;60621;49.576;11.024;2023-03-18T01:25:40;97897.13;;;6.99;60.76
72587;BME280;60621;49.576;11.024;2023-03-18T01:26:43;97902.44;;;7.03;60.81
72587;BME280;60621;49.576;11.024;2023-03-18T01:27:44;97903.63;;;7.05;61.01
72587;BME280;60621;49.576;11.024;2023-03-18T01:28:46;97902.28;;;6.96;60.83
72587;BME280;60621;49.576;11.024;2023-03-18T01:29:48;97897.97;;;7.03;60.47
72587;BME280;60621;49.576;11.024;2023-03-18T01:30:49;97898.97;;;6.99;61.00
72587;BME280;60621;49.576;11.024;2023-03-18T01:31:51;97909.13;;;7.00;60.97
72587;BME280;60621;49.576;11.024;2023-03-18T01:32:53;97908.72;;;6.98;60.96
72587;BME280;60621;49.576;11.024;2023-03-18T01:33:54;97906.59;;;7.04;60.71
72587;BME280;60621;49.576;11.024;2023-03-18T01:34:56;97907.88;;;6.94;61.31
72587;BME280;60621;49.576;11.024;2023-03-18T01:35:59;97905.50;;;6.89;61.11
72587;BME280;60621;49.576;11.024;2023-03-18T01:37:02;97910.56;;;6.98;61.94
72587;BME280;60621;49.576;11.024;2023-03-18T01:38:04;97905.31;;;6.98;61.77
72587;BME280;60621;49.576;11.024;2023-03-18T01:39:06;97910.13;;;6.96;61.83
72587;BME280;60621;49.576;11.024;2023-03-18T01:40:10;97909.47;;;6.99;61.96
72587;BME280;60621;49.576;11.024;2023-03-18T01:41:12;97910.50;;;6.94;61.49
72587;BME280;60621;49.576;11.024;2023-03-18T01:42:13;97910.63;;;7.01;61.45
72587;BME280;60621;49.576;11.024;2023-03-18T01:43:20;97912.50;;;7.01;61.22
72587;BME280;60621;49.576;11.024;2023-03-18T01:44:22;97920.81;;;7.03;61.11
72587;BME280;60621;49.576;11.024;2023-03-18T01:45:28;97916.81;;;7.09;61.25
72587;BME280;60621;49.576;11.024;2023-03-18T01:47:34;97916.66;;;7.02;61.38
72587;BME280;60621;49.576;11.024;2023-03-18T01:48:38;97915.47;;;6.99;60.92
72587;BME280;60621;49.576;11.024;2023-03-18T01:49:44;97922.66;;;7.02;61.27
72587;BME280;60621;49.576;11.024;2023-03-18T01:50:50;97918.94;;;6.87;61.38
72587;BME280;60621;49.576;11.024;2023-03-18T01:51:56;97925.22;;;6.99;61.52
72587;BME280;60621;49.576;11.024;2023-03-18T01:53:05;97916.22;;;7.00;61.10
72587;BME280;60621;49.576;11.024;2023-03-18T01:54:10;97923.94;;;7.08;61.16
72587;BME280;60621;49.576;11.024;2023-03-18T01:55:30;97922.06;;;7.09;60.96
72587;BME280;60621;49.576;11.024;2023-03-18T01:56:33;97922.66;;;7.02;60.67
72587;BME280;60621;49.576;11.024;2023-03-18T01:57:37;97923.75;;;7.01;60.61
72587;BME280;60621;49.576;11.024;2023-03-18T01:58:42;97925.00;;;7.07;60.33
72587;BME280;60621;49.576;11.024;2023-03-18T01:59:46;97924.88;;;7.00;60.64
72587;BME280;60621;49.576;11.024;2023-03-18T02:00:53;97917.56;;;6.78;60.85
72587;BME280;60621;49.576;11.024;2023-03-18T02:02:04;97919.28;;;6.70;61.54
72587;BME280;60621;49.576;11.024;2023-03-18T02:03:07;97921.56;;;6.72;61.76
72587;BME280;60621;49.576;11.024;2023-03-18T02:04:09;97927.47;;;6.68;61.91
72587;BME280;60621;49.576;11.024;2023-03-18T02:05:14;97927.03;;;6.66;61.86
72587;BME280;60621;49.576;11.024;2023-03-18T02:06:17;97924.94;;;6.72;61.70
72587;BME280;60621;49.576;11.024;2023-03-18T02:07:21;97930.47;;;6.55;62.66
72587;BME280;60621;49.576;11.024;2023-03-18T02:08:23;97931.94;;;6.52;62.91
72587;BME280;60621;49.576;11.024;2023-03-18T02:09:24;97932.03;;;6.56;62.74
72587;BME280;60621;49.576;11.024;2023-03-18T02:10:28;97923.06;;;6.57;62.17
72587;BME280;60621;49.576;11.024;2023-03-18T02:11:35;97933.97;;;6.59;62.39
72587;BME280;60621;49.576;11.024;2023-03-18T02:12:41;97933.28;;;6.62;62.03
72587;BME280;60621;49.576;11.024;2023-03-18T02:13:44;97932.44;;;6.58;62.25
72587;BME280;60621;49.576;11.024;2023-03-18T02:14:48;97934.47;;;6.64;62.08
72587;BME280;60621;49.576;11.024;2023-03-18T02:16:05;97938.22;;;6.79;61.18
72587;BME280;60621;49.576;11.024;2023-03-18T02:17:15;97934.81;;;6.79;61.25
72587;BME280;60621;49.576;11.024;2023-03-18T02:18:30;97942.13;;;6.85;60.73
72587;BME280;60621;49.576;11.024;2023-03-18T02:21:02;97940.00;;;6.75;61.49
72587;BME280;60621;49.576;11.024;2023-03-18T02:22:22;97943.94;;;6.69;61.87
72587;BME280;60621;49.576;11.024;2023-03-18T02:26:38;97947.31;;;6.54;62.42
72587;BME280;60621;49.576;11.024;2023-03-18T02:27:47;97953.31;;;6.54;62.23
72587;BME280;60621;49.576;11.024;2023-03-18T02:28:51;97946.00;;;6.60;62.40
72587;BME280;60621;49.576;11.024;2023-03-18T02:29:57;97951.50;;;6.71;62.29
72587;BME280;60621;49.576;11.024;2023-03-18T02:31:04;97948.19;;;6.74;61.87
72587;BME280;60621;49.576;11.024;2023-03-18T02:32:11;97948.28;;;6.77;61.82
72587;BME280;60621;49.576;11.024;2023-03-18T02:33:15;97957.41;;;6.83;61.84
72587;BME280;60621;49.576;11.024;2023-03-18T02:34:18;97945.16;;;6.87;61.06
72587;BME280;60621;49.576;11.024;2023-03-18T02:35:23;97945.25;;;6.91;61.04
72587;BME280;60621;49.576;11.024;2023-03-18T02:36:27;97950.06;;;6.89;61.03
72587;BME280;60621;49.576;11.024;2023-03-18T02:37:29;97947.78;;;6.87;61.39
72587;BME280;60621;49.576;11.024;2023-03-18T02:38:31;97953.78;;;6.88;61.06
72587;BME280;60621;49.576;11.024;2023-03-18T02:39:33;97955.97;;;6.86;60.96
72587;BME280;60621;49.576;11.024;2023-03-18T02:40:38;97954.47;;;6.85;61.33
72587;BME280;60621;49.576;11.024;2023-03-18T02:41:41;97946.84;;;6.80;61.37
72587;BME280;60621;49.576;11.024;2023-03-18T02:42:44;97949.63;;;6.71;61.84
72587;BME280;60621;49.576;11.024;2023-03-18T02:43:48;97954.44;;;6.69;61.64
72587;BME280;60621;49.576;11.024;2023-03-18T02:44:50;97954.88;;;6.71;61.83
72587;BME280;60621;49.576;11.024;2023-03-18T02:47:27;97947.94;;;6.79;61.72
72587;BME280;60621;49.576;11.024;2023-03-18T02:48:38;97952.84;;;6.80;61.51
72587;BME280;60621;49.576;11.024;2023-03-18T02:49:40;97950.81;;;6.74;61.37
72587;BME280;60621;49.576;11.024;2023-03-18T02:50:42;97950.72;;;6.70;61.74
72587;BME280;60621;49.576;11.024;2023-03-18T02:51:44;97957.06;;;6.69;61.26
72587;BME280;60621;49.576;11.024;2023-03-18T02:52:46;97957.91;;;6.73;61.80
72587;BME280;60621;49.576;11.024;2023-03-18T02:53:48;97949.38;;;6.60;61.83
72587;BME280;60621;49.576;11.024;2023-03-18T02:54:51;97954.25;;;6.62;61.85
72587;BME280;60621;49.576;11.024;2023-03-18T02:55:52;97951.22;;;6.60;61.98
72587;BME280;60621;49.576;11.024;2023-03-18T02:56:54;97951.53;;;6.58;62.00
72587;BME280;60621;49.576;11.024;2023-03-18T02:57:56;97947.41;;;6.57;62.21
72587;BME280;60621;49.576;11.024;2023-03-18T02:58:57;97947.50;;;6.61;61.94
72587;BME280;60621;49.576;11.024;2023-03-18T02:59:59;97951.13;;;6.56;62.36
72587;BME280;60621;49.576;11.024;2023-03-18T03:01:01;97949.28;;;6.57;61.93
72587;BME280;60621;49.576;11.024;2023-03-18T03:02:03;97950.88;;;6.61;62.03
72587;BME280;60621;49.576;11.024;2023-03-18T03:03:05;97957.22;;;6.60;61.97
72587;BME280;60621;49.576;11.024;2023-03-18T03:04:07;97950.03;;;6.57;62.16
72587;BME280;60621;49.576;11.024;2023-03-18T03:05:09;97956.69;;;6.55;62.24
72587;BME280;60621;49.576;11.024;2023-03-18T03:06:12;97953.41;;;6.58;62.64
72587;BME280;60621;49.576;11.024;2023-03-18T03:07:14;97955.41;;;6.49;63.11
72587;BME280;60621;49.576;11.024;2023-03-18T03:08:16;97966.78;;;6.40;63.31
72587;BME280;60621;49.576;11.024;2023-03-18T03:09:17;97955.63;;;6.28;64.09
72587;BME280;60621;49.576;11.024;2023-03-18T03:10:20;97970.94;;;6.13;64.40
72587;BME280;60621;49.576;11.024;2023-03-18T03:11:22;97971.75;;;6.02;65.12
72587;BME280;60621;49.576;11.024;2023-03-18T03:12:23;97972.59;;;6.06;64.57
72587;BME280;60621;49.576;11.024;2023-03-18T03:13:25;97968.19;;;6.22;64.17
72587;BME280;60621;49.576;11.024;2023-03-18T03:14:28;97969.47;;;6.28;63.81
72587;BME280;60621;49.576;11.024;2023-03-18T03:15:29;97970.41;;;6.36;63.71
72587;BME280;60621;49.576;11.024;2023-03-18T03:16:31;97974.81;;;6.32;64.15
72587;BME280;60621;49.576;11.024;2023-03-18T03:17:33;97971.97;;;6.37;64.37
72587;BME280;60621;49.576;11.024;2023-03-18T03:18:34;97971.38;;;6.44;63.90
72587;BME280;60621;49.576;11.024;2023-03-18T03:19:36;97974.00;;;6.44;64.11
72587;BME280;60621;49.576;11.024;2023-03-18T03:20:37;97978.59;;;6.47;63.78
72587;BME280;60621;49.576;11.024;2023-03-18T03:21:39;97980.63;;;6.53;63.74
72587;BME280;60621;49.576;11.024;2023-03-18T03:22:41;97979.28;;;6.59;63.90
72587;BME280;60621;49.576;11.024;2023-03-18T03:23:44;97985.72;;;6.62;64.23
72587;BME280;60621;49.576;11.024;2023-03-18T03:24:46;97976.09;;;6.66;64.05
72587;BME280;60621;49.576;11.024;2023-03-18T03:25:49;97981.66;;;6.64;63.91
72587;BME280;60621;49.576;11.024;2023-03-18T03:26:50;97983.69;;;6.55;64.34
72587;BME280;60621;49.576;11.024;2023-03-18T03:27:52;97980.97;;;6.52;63.77
72587;BME280;60621;49.576;11.024;2023-03-18T03:28:53;97980.59;;;6.37;64.02
72587;BME280;60621;49.576;11.024;2023-03-18T03:29:56;97982.19;;;6.42;64.23
72587;BME280;60621;49.576;11.024;2023-03-18T03:30:58;97981.28;;;6.50;63.92
72587;BME280;60621;49.576;11.024;2023-03-18T03:32:00;97979.19;;;6.56;63.92
72587;BME280;60621;49.576;11.024;2023-03-18T03:33:02;97985.31;;;6.60;63.85
72587;BME280;60621;49.576;11.024;2023-03-18T03:34:05;97983.47;;;6.48;63.75
72587;BME280;60621;49.576;11.024;2023-03-18T03:35:07;97987.09;;;6.44;64.65
72587;BME280;60621;49.576;11.024;2023-03-18T03:36:12;97989.00;;;6.31;64.54
72587;BME280;60621;49.576;11.024;2023-03-18T03:37:14;97989.75;;;6.31;64.47
72587;BME280;60621;49.576;11.024;2023-03-18T03:38:15;97977.28;;;6.40;64.59
72587;BME280;60621;49.576;11.024;2023-03-18T03:39:17;97983.81;;;6.47;64.23
72587;BME280;60621;49.576;11.024;2023-03-18T03:40:19;97982.63;;;6.44;63.66
72587;BME280;60621;49.576;11.024;2023-03-18T03:41:21;97983.13;;;6.50;63.54
72587;BME280;60621;49.576;11.024;2023-03-18T03:42:22;97988.31;;;6.46;63.10
72587;BME280;60621;49.576;11.024;2023-03-18T03:43:24;97988.84;;;6.39;63.41
72587;BME280;60621;49.576;11.024;2023-03-18T03:44:26;97997.31;;;6.33;63.80
72587;BME280;60621;49.576;11.024;2023-03-18T03:45:27;97996.97;;;6.34;64.18
72587;BME280;60621;49.576;11.024;2023-03-18T03:46:29;97993.28;;;6.23;64.24
72587;BME280;60621;49.576;11.024;2023-03-18T03:47:31;98001.03;;;6.20;64.74
72587;BME280;60621;49.576;11.024;2023-03-18T03:48:33;97992.09;;;6.21;64.78
72587;BME280;60621;49.576;11.024;2023-03-18T03:49:35;97987.31;;;6.23;64.91
72587;BME280;60621;49.576;11.024;2023-03-18T03:50:37;97999.16;;;6.32;64.73
72587;BME280;60621;49.576;11.024;2023-03-18T03:51:39;97991.72;;;6.34;64.89
72587;BME280;60621;49.576;11.024;2023-03-18T03:52:41;97986.47;;;6.34;64.69
72587;BME280;60621;49.576;11.024;2023-03-18T03:53:42;97998.81;;;6.34;64.51
72587;BME280;60621;49.576;11.024;2023-03-18T03:54:45;97990.19;;;6.33;64.24
72587;BME280;60621;49.576;11.024;2023-03-18T03:55:46;97994.44;;;6.38;64.26
72587;BME280;60621;49.576;11.024;2023-03-18T03:56:49;97997.31;;;6.33;64.00
72587;BME280;60621;49.576;11.024;2023-03-18T03:57:50;97989.63;;;6.40;63.91
72587;BME280;60621;49.576;11.024;2023-03-18T03:58:52;97987.31;;;6.23;64.37
72587;BME280;60621;49.576;11.024;2023-03-18T03:59:53;97996.66;;;6.24;64.32
72587;BME280;60621;49.576;11.024;2023-03-18T04:00:56;97993.09;;;6.16;64.37
72587;BME280;60621;49.576;11.024;2023-03-18T04:01:58;98000.94;;;6.16;65.05
72587;BME280;60621;49.576;11.024;2023-03-18T04:02:59;97997.91;;;6.14;64.68
72587;BME280;60621;49.576;11.024;2023-03-18T04:04:01;97994.94;;;6.15;64.69
72587;BME280;60621;49.576;11.024;2023-03-18T04:05:03;97992.66;;;6.14;64.86
72587;BME280;60621;49.576;11.024;2023-03-18T04:06:05;97999.06;;;6.16;64.98
72587;BME280;60621;49.576;11.024;2023-03-18T04:07:07;98000.94;;;6.16;64.76
72587;BME280;60621;49.576;11.024;2023-03-18T04:08:09;98001.81;;;6.20;64.97
72587;BME280;60621;49.576;11.024;2023-03-18T04:09:11;98000.47;;;6.26;65.00
72587;BME280;60621;49.576;11.024;2023-03-18T04:10:15;98005.47;;;6.31;64.84
72587;BME280;60621;49.576;11.024;2023-03-18T04:11:17;98003.41;;;6.37;64.93
72587;BME280;60621;49.576;11.024;2023-03-18T04:12:19;98002.19;;;6.34;64.86
72587;BME280;60621;49.576;11.024;2023-03-18T04:13:21;98011.88;;;6.18;65.55
72587;BME280;60621;49.576;11.024;2023-03-18T04:14:24;98004.56;;;6.11;65.66
72587;BME280;60621;49.576;11.024;2023-03-18T04:15:25;98003.06;;;5.98;65.66
72587;BME280;60621;49.576;11.024;2023-03-18T04:16:27;98001.75;;;5.92;66.17
72587;BME280;60621;49.576;11.024;2023-03-18T04:17:29;98004.25;;;6.01;66.00
72587;BME280;60621;49.576;11.024;2023-03-18T04:18:31;98008.31;;;5.98;65.88
72587;BME280;60621;49.576;11.024;2023-03-18T04:19:32;98005.88;;;6.05;65.57
72587;BME280;60621;49.576;11.024;2023-03-18T04:20:36;98002.94;;;6.07;65.49
72587;BME280;60621;49.576;11.024;2023-03-18T04:21:37;98002.28;;;5.98;65.61
72587;BME280;60621;49.576;11.024;2023-03-18T04:22:39;98004.25;;;6.01;65.70
72587;BME280;60621;49.576;11.024;2023-03-18T04:23:42;98005.13;;;6.05;65.45
72587;BME280;60621;49.576;11.024;2023-03-18T04:24:43;98003.69;;;6.07;65.10
72587;BME280;60621;49.576;11.024;2023-03-18T04:25:45;98001.84;;;6.08;64.83
72587;BME280;60621;49.576;11.024;2023-03-18T04:26:48;98008.59;;;6.09;65.41
72587;BME280;60621;49.576;11.024;2023-03-18T04:27:50;98000.19;;;6.15;64.92
72587;BME280;60621;49.576;11.024;2023-03-18T04:28:52;98002.56;;;6.21;64.76
72587;BME280;60621;49.576;11.024;2023-03-18T04:29:54;98005.53;;;6.19;64.89
72587;BME280;60621;49.576;11.024;2023-03-18T04:30:56;98007.16;;;6.24;64.30
72587;BME280;60621;49.576;11.024;2023-03-18T04:31:57;98006.69;;;6.22;64.95
72587;BME280;60621;49.576;11.024;2023-03-18T04:32:59;98002.78;;;6.28;64.54
72587;BME280;60621;49.576;11.024;2023-03-18T04:34:02;98006.91;;;6.29;64.46
72587;BME280;60621;49.576;11.024;2023-03-18T04:35:04;98003.88;;;6.27;64.56
72587;BME280;60621;49.576;11.024;2023-03-18T04:36:06;97999.53;;;6.19;64.56
72587;BME280;60621;49.576;11.024;2023-03-18T04:37:08;97998.44;;;6.20;64.53
72587;BME280;60621;49.576;11.024;2023-03-18T04:38:10;98002.16;;;6.19;64.96
72587;BME280;60621;49.576;11.024;2023-03-18T04:39:12;98011.19;;;6.21;64.71
72587;BME280;60621;49.576;11.024;2023-03-18T04:40:13;98004.78;;;6.06;65.39
72587;BME280;60621;49.576;11.024;2023-03-18T04:41:15;98000.13;;;6.00;65.56
72587;BME280;60621;49.576;11.024;2023-03-18T04:42:16;97998.91;;;5.97;65.56
72587;BME280;60621;49.576;11.024;2023-03-18T04:43:18;98003.16;;;6.02;65.56
72587;BME280;60621;49.576;11.024;2023-03-18T04:44:20;98002.63;;;5.96;65.37
72587;BME280;60621;49.576;11.024;2023-03-18T04:45:21;98002.94;;;5.82;66.12
72587;BME280;60621;49.576;11.024;2023-03-18T04:46:23;97998.28;;;5.76;66.35
72587;BME280;60621;49.576;11.024;2023-03-18T04:47:24;97994.78;;;5.72;66.20
72587;BME280;60621;49.576;11.024;2023-03-18T04:48:26;97997.63;;;5.67;66.50
72587;BME280;60621;49.576;11.024;2023-03-18T04:49:29;98003.16;;;5.77;66.46
72587;BME280;60621;49.576;11.024;2023-03-18T04:50:30;97999.91;;;5.80;65.98
72587;BME280;60621;49.576;11.024;2023-03-18T04:51:32;97995.84;;;5.83;66.39
72587;BME280;60621;49.576;11.024;2023-03-18T04:52:33;97999.22;;;5.83;66.01
72587;BME280;60621;49.576;11.024;2023-03-18T04:53:35;97999.34;;;5.87;65.86
72587;BME280;60621;49.576;11.024;2023-03-18T04:54:37;98000.44;;;5.86;66.06
72587;BME280;60621;49.576;11.024;2023-03-18T04:55:40;97999.78;;;5.77;66.21
72587;BME280;60621;49.576;11.024;2023-03-18T04:56:41;98009.16;;;5.78;66.12
72587;BME280;60621;49.576;11.024;2023-03-18T04:57:43;97999.91;;;5.80;66.30
72587;BME280;60621;49.576;11.024;2023-03-18T04:58:46;98007.22;;;5.75;67.04
72587;BME280;60621;49.576;11.024;2023-03-18T04:59:47;98001.88;;;5.71;67.74
72587;BME280;60621;49.576;11.024;2023-03-18T05:00:49;98008.75;;;5.76;67.63
72587;BME280;60621;49.576;11.024;2023-03-18T05:01:50;98007.09;;;5.71;67.66
72587;BME280;60621;49.576;11.024;2023-03-18T05:02:52;97997.63;;;5.67;66.96
72587;BME280;60621;49.576;11.024;2023-03-18T05:03:54;97996.75;;;5.62;67.26
72587;BME280;60621;49.576;11.024;2023-03-18T05:04:56;97997.50;;;5.75;66.80
72587;BME280;60621;49.576;11.024;2023-03-18T05:05:57;97989.66;;;5.63;67.13
72587;BME280;60621;49.576;11.024;2023-03-18T05:06:59;97995.69;;;5.51;67.43
72587;BME280;60621;49.576;11.024;2023-03-18T05:08:00;97995.69;;;5.51;67.36
72587;BME280;60621;49.576;11.024;2023-03-18T05:09:03;97996.09;;;5.53;67.84
72587;BME280;60621;49.576;11.024;2023-03-18T05:10:06;98002.41;;;5.64;68.00
72587;BME280;60621;49.576;11.024;2023-03-18T05:11:08;98004.19;;;5.60;67.70
72587;BME280;60621;49.576;11.024;2023-03-18T05:12:11;97998.94;;;5.60;67.43
72587;BME280;60621;49.576;11.024;2023-03-18T05:13:15;97993.78;;;5.64;67.06
72587;BME280;60621;49.576;11.024;2023-03-18T05:14:21;97997.94;;;5.77;66.64
72587;BME280;60621;49.576;11.024;2023-03-18T05:15:22;98006.13;;;5.76;66.36
72587;BME280;60621;49.576;11.024;2023-03-18T05:16:24;97998.91;;;5.73;66.11
72587;BME280;60621;49.576;11.024;2023-03-18T05:17:25;98005.38;;;5.75;66.55
72587;BME280;60621;49.576;11.024;2023-03-18T05:18:26;98003.06;;;5.74;66.04
72587;BME280;60621;49.576;11.024;2023-03-18T05:19:28;98008.63;;;5.72;65.74
72587;BME280;60621;49.576;11.024;2023-03-18T05:20:30;98009.31;;;5.57;66.30
72587;BME280;60621;49.576;11.024;2023-03-18T05:21:31;98010.94;;;5.37;67.43
72587;BME280;60621;49.576;11.024;2023-03-18T05:22:33;98008.97;;;5.46;67.33
72587;BME280;60621;49.576;11.024;2023-03-18T05:23:35;98015.63;;;5.56;67.07
72587;BME280;60621;49.576;11.024;2023-03-18T05:24:38;98011.69;;;5.50;66.49
72587;BME280;60621;49.576;11.024;2023-03-18T05:25:39;98005.78;;;5.40;67.32
72587;BME280;60621;49.576;11.024;2023-03-18T05:26:41;98005.78;;;5.40;67.46
72587;BME280;60621;49.576;11.024;2023-03-18T05:27:42;98002.75;;;5.38;67.56
72587;BME280;60621;49.576;11.024;2023-03-18T05:28:44;98003.75;;;5.46;67.93
72587;BME280;60621;49.576;11.024;2023-03-18T05:29:46;98005.69;;;5.49;67.74
72587;BME280;60621;49.576;11.024;2023-03-18T05:30:48;98011.56;;;5.58;67.43
72587;BME280;60621;49.576;11.024;2023-03-18T05:31:49;98010.72;;;5.67;67.48
72587;BME280;60621;49.576;11.024;2023-03-18T05:32:51;98011.47;;;5.67;66.75
72587;BME280;60621;49.576;11.024;2023-03-18T05:33:53;98012.44;;;5.50;67.09
72587;BME280;60621;49.576;11.024;2023-03-18T05:34:54;98012.56;;;5.42;67.58
72587;BME280;60621;49.576;11.024;2023-03-18T05:35:56;98021.28;;;5.33;68.10
72587;BME280;60621;49.576;11.024;2023-03-18T05:36:57;98016.25;;;5.28;67.86
72587;BME280;60621;49.576;11.024;2023-03-18T05:37:59;98016.03;;;5.21;68.15
72587;BME280;60621;49.576;11.024;2023-03-18T05:39:01;98016.03;;;5.33;68.45
72587;BME280;60621;49.576;11.024;2023-03-18T05:40:04;98018.31;;;5.35;67.29